createdAt,value
2023-04-03T00:04:38.034Z,99251.46
2023-04-03T00:09:39.799Z,99255.52
2023-04-03T00:14:41.515Z,99254.71
2023-04-03T00:19:43.261Z,99256.21
2023-04-03T00:24:44.980Z,99257.55
2023-04-03T00:29:46.697Z,99256.43
2023-04-03T00:34:48.535Z,99259.05
2023-04-03T00:39:51.225Z,99258.71
2023-04-03T00:44:59.068Z,99258.65
2023-04-03T00:50:00.815Z,99259.29
2023-04-03T00:55:06.969Z,99255.83
2023-04-03T01:00:15.724Z,99255.06
2023-04-03T01:05:20.404Z,99256.23
2023-04-03T01:10:22.696Z,99262.72
2023-04-03T01:15:28.941Z,99270.13
2023-04-03T01:20:37.352Z,99269.58
2023-04-03T01:26:08.328Z,99273.77
2023-04-03T01:31:28.016Z,99272.20
2023-04-03T01:36:32.122Z,99274.62
2023-04-03T01:41:34.414Z,99276.20
2023-04-03T01:46:43.479Z,99280.77
2023-04-03T01:51:45.489Z,99285.81
2023-04-03T01:56:47.282Z,99284.28
2023-04-03T02:01:49.384Z,99283.79
2023-04-03T02:06:51.170Z,99291.27
2023-04-03T02:11:53.649Z,99297.69
2023-04-03T02:16:55.654Z,99294.74
2023-04-03T02:21:58.145Z,99299.88
2023-04-03T02:27:00.465Z,99299.03
2023-04-03T02:32:02.645Z,99295.42
2023-04-03T02:37:04.953Z,99296.12
2023-04-03T02:42:06.742Z,99298.96
2023-04-03T02:47:09.215Z,99299.33
2023-04-03T02:52:11.246Z,99306.08
2023-04-03T02:57:13.598Z,99310.34
2023-04-03T03:02:15.359Z,99309.35
2023-04-03T03:07:17.216Z,99309.61
2023-04-03T03:12:22.957Z,99319.50
2023-04-03T03:17:25.562Z,99321.70
2023-04-03T03:22:27.430Z,99321.57
2023-04-03T03:27:29.294Z,99326.56
2023-04-03T03:32:31.173Z,99334.17
2023-04-03T03:37:33.096Z,99340.59
2023-04-03T03:42:34.912Z,99341.23
2023-04-03T03:47:38.151Z,99347.95
2023-04-03T03:52:40.477Z,99345.23
2023-04-03T03:57:42.464Z,99346.88
2023-04-03T04:06:19.804Z,99353.32
2023-04-03T04:11:22.987Z,99350.61
2023-04-03T04:16:25.841Z,99356.73
2023-04-03T04:21:29.458Z,99359.29
2023-04-03T04:26:32.423Z,99363.12
2023-04-03T04:31:34.393Z,99359.48
2023-04-03T04:36:37.169Z,99367.02
2023-04-03T04:41:40.294Z,99379.55
2023-04-03T04:46:42.569Z,99385.05
2023-04-03T04:51:51.976Z,99392.29
2023-04-03T04:56:57.632Z,99394.85
2023-04-03T05:02:00.177Z,99396.42
2023-04-03T05:07:02.492Z,99407.02
2023-04-03T05:12:05.384Z,99407.80
2023-04-03T05:17:11.955Z,99411.41
2023-04-03T05:22:16.696Z,99414.64
2023-04-03T05:27:18.719Z,99419.20
2023-04-03T05:32:24.356Z,99421.25
2023-04-03T05:37:30.092Z,99428.66
2023-04-03T05:42:33.567Z,99431.67
2023-04-03T05:47:35.928Z,99429.77
2023-04-03T05:52:44.289Z,99431.41
2023-04-03T05:57:46.741Z,99433.29
2023-04-03T06:02:48.906Z,99435.30
2023-04-03T06:07:54.745Z,99444.29
2023-04-03T06:12:56.571Z,99447.13
2023-04-03T06:17:58.722Z,99453.13
2023-04-03T06:23:01.252Z,99459.20
2023-04-03T06:28:03.099Z,99460.17
2023-04-03T06:33:04.838Z,99464.84
2023-04-03T06:38:10.584Z,99469.46
2023-04-03T06:43:12.362Z,99470.02
2023-04-03T06:48:14.697Z,99477.20
2023-04-03T06:53:16.814Z,99482.55
2023-04-03T06:58:20.457Z,99481.65
2023-04-03T07:03:23.473Z,99492.27
2023-04-03T07:08:27.074Z,99493.63
2023-04-03T07:13:29.090Z,99498.50
2023-04-03T07:18:30.908Z,99497.52
2023-04-03T07:23:32.753Z,99501.51
2023-04-03T07:28:35.063Z,99509.55
2023-04-03T07:33:38.162Z,99511.23
2023-04-03T07:38:40.132Z,99507.61
2023-04-03T07:43:43.227Z,99515.19
2023-04-03T07:48:44.989Z,99510.80
2023-04-03T07:53:47.099Z,99508.73
2023-04-03T07:58:48.846Z,99517.66
2023-04-03T08:03:52.140Z,99510.19
2023-04-03T08:08:53.959Z,99513.21
2023-04-03T08:13:57.067Z,99512.45
2023-04-03T08:18:58.777Z,99515.38
2023-04-03T08:24:00.494Z,99514.09
2023-04-03T08:29:02.410Z,99518.95
2023-04-03T08:34:04.164Z,99520.52
2023-04-03T08:39:05.796Z,99520.17
2023-04-03T08:44:26.177Z,99520.20
2023-04-03T08:49:33.677Z,99511.48
2023-04-03T08:54:52.063Z,99520.09
2023-04-03T08:59:54.080Z,99521.23
2023-04-03T09:04:56.667Z,99521.87
2023-04-03T09:10:03.992Z,99511.88
2023-04-03T09:15:37.927Z,99511.52
2023-04-03T09:20:48.927Z,99510.84
2023-04-03T09:25:54.549Z,99510.84
2023-04-03T09:30:56.326Z,99515.75
2023-04-03T09:35:58.050Z,99514.77
2023-04-03T09:41:03.756Z,99515.34
2023-04-03T09:46:27.572Z,99525.60
2023-04-03T09:51:32.099Z,99534.50
2023-04-03T09:56:35.591Z,99531.66
2023-04-03T10:01:40.555Z,99537.33
2023-04-03T10:06:47.878Z,99535.98
2023-04-03T10:12:11.550Z,99530.80
2023-04-03T10:17:20.768Z,99528.77
2023-04-03T10:22:37.830Z,99534.52
2023-04-03T10:27:48.050Z,99532.10
2023-04-03T10:33:28.858Z,99534.51
2023-04-03T10:39:25.996Z,99536.77
2023-04-03T10:44:30.740Z,99526.64
2023-04-03T10:49:39.081Z,99519.64
2023-04-03T10:54:50.709Z,99518.61
2023-04-03T11:00:02.720Z,99523.91
2023-04-03T11:05:10.398Z,99518.84
2023-04-03T11:10:42.898Z,99521.86
2023-04-03T11:15:47.395Z,99511.06
2023-04-03T11:21:15.654Z,99506.03
2023-04-03T11:26:26.446Z,99508.50
2023-04-03T11:32:02.928Z,99502.67
2023-04-03T11:37:14.232Z,99501.48
2023-04-03T11:42:26.955Z,99504.46
2023-04-03T11:47:48.439Z,99497.73
2023-04-03T11:52:50.564Z,99495.30
2023-04-03T11:57:58.342Z,99495.80
2023-04-03T12:03:00.406Z,99496.70
2023-04-03T12:08:28.140Z,99502.80
2023-04-03T12:13:29.946Z,99494.98
2023-04-03T12:18:50.030Z,99496.23
2023-04-03T12:24:17.914Z,99485.64
2023-04-03T12:29:29.892Z,99482.16
2023-04-03T12:35:06.504Z,99488.73
2023-04-03T12:40:36.078Z,99477.12
2023-04-03T12:46:11.025Z,99476.38
2023-04-03T12:51:22.334Z,99484.92
2023-04-03T12:56:32.040Z,99476.95
2023-04-03T13:01:35.142Z,99478.30
2023-04-03T13:06:42.822Z,99477.20
2023-04-03T13:11:46.614Z,99484.27
2023-04-03T13:17:00.165Z,99467.54
2023-04-03T13:22:24.319Z,99471.08
2023-04-03T13:27:27.387Z,99471.77
2023-04-03T13:32:31.191Z,99472.46
2023-04-03T13:37:34.532Z,99474.23
2023-04-03T13:42:41.637Z,99473.80
2023-04-03T13:47:47.334Z,99481.07
2023-04-03T13:53:13.079Z,99476.97
2023-04-03T13:58:14.714Z,99481.08
2023-04-03T14:03:27.632Z,99475.33
2023-04-03T14:08:41.759Z,99469.21
2023-04-03T14:13:46.350Z,99474.91
2023-04-03T14:18:52.422Z,99480.91
2023-04-03T14:23:54.250Z,99479.52
2023-04-03T14:28:56.901Z,99479.65
2023-04-03T14:33:58.667Z,99476.27
2023-04-03T14:39:01.949Z,99475.48
2023-04-03T14:44:03.777Z,99481.35
2023-04-03T14:49:15.491Z,99479.16
2023-04-03T14:54:26.431Z,99481.50
2023-04-03T14:59:30.072Z,99490.92
2023-04-03T15:04:32.036Z,99494.38
2023-04-03T15:09:36.841Z,99494.76
2023-04-03T15:19:45.078Z,99501.73
2023-04-03T15:24:48.007Z,99500.17
2023-04-03T15:29:49.742Z,99496.67
2023-04-03T15:34:54.943Z,99499.43
2023-04-03T15:39:58.372Z,99499.11
2023-04-03T15:45:00.291Z,99501.52
2023-04-03T15:50:02.316Z,99506.15
2023-04-03T15:55:05.581Z,99512.19
2023-04-03T16:00:09.026Z,99510.66
2023-04-03T16:05:11.838Z,99510.07
2023-04-03T16:10:15.516Z,99519.41
2023-04-03T16:15:17.436Z,99522.16
2023-04-03T16:20:19.757Z,99519.11
2023-04-03T16:25:21.742Z,99522.88
2023-04-03T16:30:24.204Z,99524.23
2023-04-03T16:35:25.933Z,99531.52
2023-04-03T16:40:27.678Z,99530.77
2023-04-03T16:45:29.364Z,99534.87
2023-04-03T16:50:31.230Z,99537.18
2023-04-03T16:55:33.111Z,99538.82
2023-04-03T17:00:35.928Z,99542.95
2023-04-03T17:05:38.249Z,99545.06
2023-04-03T17:10:40.516Z,99544.02
2023-04-03T17:15:42.780Z,99549.69
2023-04-03T17:20:44.773Z,99555.13
2023-04-03T17:25:46.487Z,99556.98
2023-04-03T17:30:48.870Z,99565.39
2023-04-03T17:35:51.131Z,99568.34
2023-04-03T17:40:57.156Z,99574.84
2023-04-03T17:46:08.983Z,99583.32
2023-04-03T17:51:16.879Z,99585.52
2023-04-03T17:56:22.864Z,99581.58
2023-04-03T18:01:30.427Z,99587.39
2023-04-03T18:06:48.208Z,99589.44
2023-04-03T18:11:51.690Z,99591.95
2023-04-03T18:16:53.665Z,99595.39
2023-04-03T18:21:58.321Z,99595.14
2023-04-03T18:27:04.901Z,99595.45
2023-04-03T18:32:09.601Z,99598.66
2023-04-03T18:37:11.315Z,99598.09
2023-04-03T18:42:18.524Z,99597.48
2023-04-03T18:47:20.552Z,99599.33
2023-04-03T18:52:24.127Z,99605.95
2023-04-03T18:57:28.699Z,99603.97
2023-04-03T19:02:30.873Z,99601.92
2023-04-03T19:07:33.359Z,99594.52
2023-04-03T19:12:35.350Z,99598.23
2023-04-03T19:17:37.121Z,99596.09
2023-04-03T19:22:39.580Z,99596.41
2023-04-03T19:27:41.911Z,99598.02
2023-04-03T19:32:43.877Z,99599.15
2023-04-03T19:37:50.697Z,99602.27
2023-04-03T19:42:52.922Z,99600.58
2023-04-03T19:47:54.719Z,99602.15
2023-04-03T19:52:56.454Z,99603.13
2023-04-03T19:57:59.484Z,99602.15
2023-04-03T20:03:03.081Z,99598.83
2023-04-03T20:08:05.086Z,99595.83
2023-04-03T20:13:10.848Z,99598.27
2023-04-03T20:18:18.228Z,99593.47
2023-04-03T20:23:20.203Z,99594.27
2023-04-03T20:28:23.113Z,99593.70
2023-04-03T20:33:28.205Z,99595.45
2023-04-03T20:38:29.952Z,99591.72
2023-04-03T20:43:31.702Z,99590.14
2023-04-03T20:48:33.339Z,99592.10
2023-04-03T20:53:34.947Z,99594.17
2023-04-03T20:58:41.240Z,99605.90
2023-04-03T21:03:43.988Z,99611.58
2023-04-03T21:09:24.728Z,99611.73
2023-04-03T21:15:13.005Z,99613.45
2023-04-03T21:20:14.804Z,99617.36
2023-04-03T21:25:16.785Z,99625.89
2023-04-03T21:30:18.702Z,99624.30
2023-04-03T21:35:20.376Z,99623.98
2023-04-03T21:40:23.200Z,99623.91
2023-04-03T21:45:26.417Z,99620.80
2023-04-03T21:50:37.164Z,99619.16
2023-04-03T21:55:40.439Z,99615.91
2023-04-03T22:00:42.714Z,99613.42
2023-04-03T22:05:44.625Z,99615.91
2023-04-03T22:10:46.895Z,99613.52
2023-04-03T22:15:48.587Z,99607.65
2023-04-03T22:20:50.676Z,99602.35
2023-04-03T22:26:09.928Z,99599.70
2023-04-03T22:31:16.195Z,99594.13
2023-04-03T22:36:18.401Z,99593.92
2023-04-03T22:41:20.055Z,99592.50
2023-04-03T22:46:21.737Z,99595.61
2023-04-03T22:51:23.417Z,99595.34
2023-04-03T22:56:26.314Z,99584.20
2023-04-03T23:01:29.349Z,99571.11
2023-04-03T23:06:31.266Z,99569.04
2023-04-03T23:11:34.969Z,99555.94
2023-04-03T23:16:36.618Z,99549.10
2023-04-03T23:21:39.437Z,99543.77
2023-04-03T23:26:41.200Z,99538.81
2023-04-03T23:31:42.909Z,99543.38
2023-04-03T23:36:44.676Z,99531.50
2023-04-03T23:41:49.011Z,99525.23
2023-04-03T23:46:51.567Z,99522.30
2023-04-03T23:51:56.845Z,99517.77
2023-04-03T23:56:59.773Z,99515.68
